sensor_id;sensor_type;location;lat;lon;timestamp;temperature;humidity
3866;DHT22;1948;53.250;10.412;2023-02-28T00:01:59;0.40;99.90
3866;DHT22;1948;53.250;10.412;2023-02-28T00:04:35;0.40;99.90
3866;DHT22;1948;53.250;10.412;2023-02-28T00:07:02;0.40;99.90
3866;DHT22;1948;53.250;10.412;2023-02-28T00:09:31;0.40;99.90
3866;DHT22;1948;53.250;10.412;2023-02-28T00:11:58;0.40;99.90
3866;DHT22;1948;53.250;10.412;2023-02-28T00:14:39;0.40;99.90
3866;DHT22;1948;53.250;10.412;2023-02-28T00:17:06;0.40;99.90
3866;DHT22;1948;53.250;10.412;2023-02-28T00:19:33;0.40;99.90
3866;DHT22;1948;53.250;10.412;2023-02-28T00:22:00;0.30;99.90
3866;DHT22;1948;53.250;10.412;2023-02-28T00:24:27;0.30;99.90
3866;DHT22;1948;53.250;10.412;2023-02-28T00:26:54;0.30;99.90
3866;DHT22;1948;53.250;10.412;2023-02-28T00:29:21;0.20;99.90
3866;DHT22;1948;53.250;10.412;2023-02-28T00:31:48;0.10;99.90
3866;DHT22;1948;53.250;10.412;2023-02-28T00:34:18;0.00;99.90
3866;DHT22;1948;53.250;10.412;2023-02-28T00:36:47;0.00;99.90
3866;DHT22;1948;53.250;10.412;2023-02-28T00:39:18;0.00;99.90
3866;DHT22;1948;53.250;10.412;2023-02-28T00:41:45;0.00;99.90
3866;DHT22;1948;53.250;10.412;2023-02-28T00:44:12;0.00;99.90
3866;DHT22;1948;53.250;10.412;2023-02-28T00:46:42;-0.10;99.90
3866;DHT22;1948;53.250;10.412;2023-02-28T00:49:10;-0.10;99.90
3866;DHT22;1948;53.250;10.412;2023-02-28T00:51:37;0.00;99.90
3866;DHT22;1948;53.250;10.412;2023-02-28T00:54:04;-0.10;99.90
3866;DHT22;1948;53.250;10.412;2023-02-28T00:56:31;-0.10;99.90
3866;DHT22;1948;53.250;10.412;2023-02-28T00:58:58;-0.10;99.90
3866;DHT22;1948;53.250;10.412;2023-02-28T01:01:29;-0.10;99.90
3866;DHT22;1948;53.250;10.412;2023-02-28T01:03:57;-0.20;99.90
3866;DHT22;1948;53.250;10.412;2023-02-28T01:06:26;-0.20;99.90
3866;DHT22;1948;53.250;10.412;2023-02-28T01:08:53;-0.20;99.90
3866;DHT22;1948;53.250;10.412;2023-02-28T01:11:23;-0.20;99.90
3866;DHT22;1948;53.250;10.412;2023-02-28T01:13:52;-0.20;99.90
3866;DHT22;1948;53.250;10.412;2023-02-28T01:16:21;-0.10;99.90
3866;DHT22;1948;53.250;10.412;2023-02-28T01:18:48;-0.10;99.90
3866;DHT22;1948;53.250;10.412;2023-02-28T01:21:17;-0.10;99.90
3866;DHT22;1948;53.250;10.412;2023-02-28T01:23:46;-0.20;99.90
3866;DHT22;1948;53.250;10.412;2023-02-28T01:26:16;-0.20;99.90
3866;DHT22;1948;53.250;10.412;2023-02-28T01:28:44;-0.30;99.90
3866;DHT22;1948;53.250;10.412;2023-02-28T01:31:11;-0.30;99.90
3866;DHT22;1948;53.250;10.412;2023-02-28T01:33:39;-0.20;99.90
3866;DHT22;1948;53.250;10.412;2023-02-28T01:38:46;-0.30;99.90
3866;DHT22;1948;53.250;10.412;2023-02-28T01:41:21;-0.20;99.90
3866;DHT22;1948;53.250;10.412;2023-02-28T01:46:15;-0.30;99.90
3866;DHT22;1948;53.250;10.412;2023-02-28T01:48:46;-0.40;99.90
3866;DHT22;1948;53.250;10.412;2023-02-28T01:51:26;-0.40;99.90
3866;DHT22;1948;53.250;10.412;2023-02-28T01:54:11;-0.50;99.90
3866;DHT22;1948;53.250;10.412;2023-02-28T01:56:46;-0.50;99.90
3866;DHT22;1948;53.250;10.412;2023-02-28T01:59:29;-0.50;99.90
3866;DHT22;1948;53.250;10.412;2023-02-28T02:02:14;-0.50;99.90
3866;DHT22;1948;53.250;10.412;2023-02-28T02:04:55;-0.50;99.90
3866;DHT22;1948;53.250;10.412;2023-02-28T02:07:35;-0.50;99.90
3866;DHT22;1948;53.250;10.412;2023-02-28T02:19:30;-0.80;99.90
3866;DHT22;1948;53.250;10.412;2023-02-28T02:25:39;-0.80;99.90
3866;DHT22;1948;53.250;10.412;2023-02-28T02:34:21;-0.80;99.90
3866;DHT22;1948;53.250;10.412;2023-02-28T02:37:00;-0.80;99.90
3866;DHT22;1948;53.250;10.412;2023-02-28T02:40:23;-0.80;99.90
3866;DHT22;1948;53.250;10.412;2023-02-28T02:42:59;-0.80;99.90
3866;DHT22;1948;53.250;10.412;2023-02-28T02:45:41;-0.90;99.90
3866;DHT22;1948;53.250;10.412;2023-02-28T02:48:15;-0.90;99.90
3866;DHT22;1948;53.250;10.412;2023-02-28T02:50:57;-0.90;99.90
3866;DHT22;1948;53.250;10.412;2023-02-28T02:53:34;-0.80;99.90
3866;DHT22;1948;53.250;10.412;2023-02-28T02:56:03;-0.80;99.90
3866;DHT22;1948;53.250;10.412;2023-02-28T02:58:35;-0.70;99.90
3866;DHT22;1948;53.250;10.412;2023-02-28T03:01:12;-0.70;99.90
3866;DHT22;1948;53.250;10.412;2023-02-28T03:03:45;-0.70;99.90
3866;DHT22;1948;53.250;10.412;2023-02-28T03:06:14;-0.70;99.90
3866;DHT22;1948;53.250;10.412;2023-02-28T03:08:41;-0.70;99.90
3866;DHT22;1948;53.250;10.412;2023-02-28T03:11:13;-0.70;99.90
3866;DHT22;1948;53.250;10.412;2023-02-28T03:19:53;-0.80;99.90
3866;DHT22;1948;53.250;10.412;2023-02-28T03:25:56;-1.00;99.90
3866;DHT22;1948;53.250;10.412;2023-02-28T03:28:43;-1.00;99.90
3866;DHT22;1948;53.250;10.412;2023-02-28T03:31:43;-1.00;99.90
3866;DHT22;1948;53.250;10.412;2023-02-28T03:34:19;-1.00;99.90
3866;DHT22;1948;53.250;10.412;2023-02-28T03:36:55;-1.10;99.90
3866;DHT22;1948;53.250;10.412;2023-02-28T03:42:36;-1.10;99.90
3866;DHT22;1948;53.250;10.412;2023-02-28T03:45:10;-1.20;99.90
3866;DHT22;1948;53.250;10.412;2023-02-28T03:47:49;-1.20;99.90
3866;DHT22;1948;53.250;10.412;2023-02-28T03:50:22;-1.20;99.90
3866;DHT22;1948;53.250;10.412;2023-02-28T03:52:55;-1.20;99.90
3866;DHT22;1948;53.250;10.412;2023-02-28T03:55:37;-1.20;99.90
3866;DHT22;1948;53.250;10.412;2023-02-28T04:01:12;-1.10;99.90
3866;DHT22;1948;53.250;10.412;2023-02-28T04:03:44;-1.20;99.90
3866;DHT22;1948;53.250;10.412;2023-02-28T04:06:24;-1.20;99.90
3866;DHT22;1948;53.250;10.412;2023-02-28T04:08:51;-1.20;99.90
3866;DHT22;1948;53.250;10.412;2023-02-28T04:11:22;-1.20;99.90
3866;DHT22;1948;53.250;10.412;2023-02-28T04:14:04;-1.20;99.90
3866;DHT22;1948;53.250;10.412;2023-02-28T04:16:33;-1.20;99.90
3866;DHT22;1948;53.250;10.412;2023-02-28T04:19:06;-1.20;99.90
3866;DHT22;1948;53.250;10.412;2023-02-28T04:21:40;-1.20;99.90
3866;DHT22;1948;53.250;10.412;2023-02-28T04:24:18;-1.30;99.90
3866;DHT22;1948;53.250;10.412;2023-02-28T04:26:51;-1.30;99.90
3866;DHT22;1948;53.250;10.412;2023-02-28T04:32:01;-1.30;99.90
3866;DHT22;1948;53.250;10.412;2023-02-28T04:34:30;-1.40;99.90
3866;DHT22;1948;53.250;10.412;2023-02-28T04:37:01;-1.30;99.90
3866;DHT22;1948;53.250;10.412;2023-02-28T04:39:42;-1.30;99.90
3866;DHT22;1948;53.250;10.412;2023-02-28T04:42:10;-1.30;99.90
3866;DHT22;1948;53.250;10.412;2023-02-28T04:44:40;-1.30;99.90
3866;DHT22;1948;53.250;10.412;2023-02-28T04:47:07;-1.40;99.90
3866;DHT22;1948;53.250;10.412;2023-02-28T04:49:34;-1.40;99.90
3866;DHT22;1948;53.250;10.412;2023-02-28T04:52:04;-1.40;99.90
3866;DHT22;1948;53.250;10.412;2023-02-28T04:54:31;-1.40;99.90
3866;DHT22;1948;53.250;10.412;2023-02-28T04:56:58;-1.40;99.90
3866;DHT22;1948;53.250;10.412;2023-02-28T04:59:28;-1.40;99.90
3866;DHT22;1948;53.250;10.412;2023-02-28T05:01:55;-1.40;99.90
3866;DHT22;1948;53.250;10.412;2023-02-28T05:04:21;-1.40;99.90
3866;DHT22;1948;53.250;10.412;2023-02-28T05:06:49;-1.40;99.90
3866;DHT22;1948;53.250;10.412;2023-02-28T05:09:21;-1.50;99.90
3866;DHT22;1948;53.250;10.412;2023-02-28T05:11:53;-1.50;99.90
3866;DHT22;1948;53.250;10.412;2023-02-28T05:14:23;-1.50;99.90
3866;DHT22;1948;53.250;10.412;2023-02-28T05:16:52;-1.40;99.90
3866;DHT22;1948;53.250;10.412;2023-02-28T05:19:21;-1.50;99.90
3866;DHT22;1948;53.250;10.412;2023-02-28T05:21:51;-1.50;99.90
3866;DHT22;1948;53.250;10.412;2023-02-28T05:24:20;-1.50;99.90
3866;DHT22;1948;53.250;10.412;2023-02-28T05:26:51;-1.50;99.90
3866;DHT22;1948;53.250;10.412;2023-02-28T05:29:22;-1.60;99.90
3866;DHT22;1948;53.250;10.412;2023-02-28T05:31:49;-1.60;99.90
3866;DHT22;1948;53.250;10.412;2023-02-28T05:34:21;-1.50;99.90
3866;DHT22;1948;53.250;10.412;2023-02-28T05:36:48;-1.50;99.90
3866;DHT22;1948;53.250;10.412;2023-02-28T05:39:15;-1.50;99.90
3866;DHT22;1948;53.250;10.412;2023-02-28T05:41:44;-1.40;99.90
3866;DHT22;1948;53.250;10.412;2023-02-28T05:44:13;-1.60;99.90
3866;DHT22;1948;53.250;10.412;2023-02-28T05:46:44;-1.60;99.90
3866;DHT22;1948;53.250;10.412;2023-02-28T05:49:11;-1.70;99.90
3866;DHT22;1948;53.250;10.412;2023-02-28T05:51:38;-1.70;99.90
3866;DHT22;1948;53.250;10.412;2023-02-28T05:54:07;-1.80;99.90
3866;DHT22;1948;53.250;10.412;2023-02-28T05:56:34;-1.90;99.90
3866;DHT22;1948;53.250;10.412;2023-02-28T05:59:01;-1.90;99.90
3866;DHT22;1948;53.250;10.412;2023-02-28T06:04:20;-1.90;99.90
3866;DHT22;1948;53.250;10.412;2023-02-28T06:07:00;-1.90;99.90
3866;DHT22;1948;53.250;10.412;2023-02-28T06:09:28;-1.90;99.90
3866;DHT22;1948;53.250;10.412;2023-02-28T06:12:01;-1.90;99.90
3866;DHT22;1948;53.250;10.412;2023-02-28T06:14:35;-1.90;99.90
3866;DHT22;1948;53.250;10.412;2023-02-28T06:17:03;-1.90;99.90
3866;DHT22;1948;53.250;10.412;2023-02-28T06:19:31;-1.90;99.90
3866;DHT22;1948;53.250;10.412;2023-02-28T06:22:00;-1.90;99.90
3866;DHT22;1948;53.250;10.412;2023-02-28T06:24:33;-1.90;99.90
3866;DHT22;1948;53.250;10.412;2023-02-28T06:27:00;-1.80;99.90
3866;DHT22;1948;53.250;10.412;2023-02-28T06:29:32;-1.60;99.90
3866;DHT22;1948;53.250;10.412;2023-02-28T06:31:59;-1.30;99.90
3866;DHT22;1948;53.250;10.412;2023-02-28T06:34:27;-0.90;99.90
3866;DHT22;1948;53.250;10.412;2023-02-28T06:36:56;-0.60;99.90
3866;DHT22;1948;53.250;10.412;2023-02-28T06:39:23;-0.30;99.90
3866;DHT22;1948;53.250;10.412;2023-02-28T06:41:50;0.10;99.90
3866;DHT22;1948;53.250;10.412;2023-02-28T06:44:21;0.40;99.90
3866;DHT22;1948;53.250;10.412;2023-02-28T06:46:49;0.80;99.90
3866;DHT22;1948;53.250;10.412;2023-02-28T06:49:17;1.30;99.90
3866;DHT22;1948;53.250;10.412;2023-02-28T06:51:44;1.80;99.90
3866;DHT22;1948;53.250;10.412;2023-02-28T06:54:12;2.40;99.90
3866;DHT22;1948;53.250;10.412;2023-02-28T06:56:39;2.90;99.90
3866;DHT22;1948;53.250;10.412;2023-02-28T06:59:06;3.40;99.90
3866;DHT22;1948;53.250;10.412;2023-02-28T07:01:33;3.90;99.90
3866;DHT22;1948;53.250;10.412;2023-02-28T07:04:04;4.40;99.90
3866;DHT22;1948;53.250;10.412;2023-02-28T07:06:34;5.00;99.90
3866;DHT22;1948;53.250;10.412;2023-02-28T07:09:01;5.50;99.90
3866;DHT22;1948;53.250;10.412;2023-02-28T07:11:28;5.70;99.90
3866;DHT22;1948;53.250;10.412;2023-02-28T07:14:00;6.20;99.90
3866;DHT22;1948;53.250;10.412;2023-02-28T07:16:27;6.80;99.90
3866;DHT22;1948;53.250;10.412;2023-02-28T07:18:55;7.30;99.90
3866;DHT22;1948;53.250;10.412;2023-02-28T07:21:22;7.70;99.90
3866;DHT22;1948;53.250;10.412;2023-02-28T07:23:49;7.90;99.90
3866;DHT22;1948;53.250;10.412;2023-02-28T07:26:20;8.30;99.90
3866;DHT22;1948;53.250;10.412;2023-02-28T07:28:50;8.60;99.90
3866;DHT22;1948;53.250;10.412;2023-02-28T07:31:19;8.80;99.90
3866;DHT22;1948;53.250;10.412;2023-02-28T07:33:46;9.20;99.90
3866;DHT22;1948;53.250;10.412;2023-02-28T07:36:15;9.50;99.90
3866;DHT22;1948;53.250;10.412;2023-02-28T07:38:46;9.90;99.90
3866;DHT22;1948;53.250;10.412;2023-02-28T07:41:18;10.30;99.90
3866;DHT22;1948;53.250;10.412;2023-02-28T07:43:57;10.60;99.90
3866;DHT22;1948;53.250;10.412;2023-02-28T07:46:26;11.00;99.90
3866;DHT22;1948;53.250;10.412;2023-02-28T07:48:56;11.70;99.90
3866;DHT22;1948;53.250;10.412;2023-02-28T07:51:26;12.10;99.90
3866;DHT22;1948;53.250;10.412;2023-02-28T07:53:53;12.50;99.80
3866;DHT22;1948;53.250;10.412;2023-02-28T07:56:20;12.60;99.70
3866;DHT22;1948;53.250;10.412;2023-02-28T07:58:47;13.10;98.50
3866;DHT22;1948;53.250;10.412;2023-02-28T08:01:19;13.60;97.70
3866;DHT22;1948;53.250;10.412;2023-02-28T08:03:46;13.80;96.80
3866;DHT22;1948;53.250;10.412;2023-02-28T08:06:22;13.90;96.20
3866;DHT22;1948;53.250;10.412;2023-02-28T08:08:50;14.00;95.70
3866;DHT22;1948;53.250;10.412;2023-02-28T08:11:17;14.30;95.80
3866;DHT22;1948;53.250;10.412;2023-02-28T08:13:45;14.80;95.10
3866;DHT22;1948;53.250;10.412;2023-02-28T08:16:13;15.30;93.80
3866;DHT22;1948;53.250;10.412;2023-02-28T08:18:44;15.80;93.10
3866;DHT22;1948;53.250;10.412;2023-02-28T08:21:14;16.10;92.10
3866;DHT22;1948;53.250;10.412;2023-02-28T08:23:43;16.20;91.30
3866;DHT22;1948;53.250;10.412;2023-02-28T08:26:10;16.20;91.10
3866;DHT22;1948;53.250;10.412;2023-02-28T08:28:37;16.50;90.90
3866;DHT22;1948;53.250;10.412;2023-02-28T08:31:09;16.40;90.60
3866;DHT22;1948;53.250;10.412;2023-02-28T08:33:38;17.00;90.00
3866;DHT22;1948;53.250;10.412;2023-02-28T08:36:07;17.10;88.60
3866;DHT22;1948;53.250;10.412;2023-02-28T08:38:35;17.60;87.40
3866;DHT22;1948;53.250;10.412;2023-02-28T08:41:06;17.80;85.90
3866;DHT22;1948;53.250;10.412;2023-02-28T08:43:34;18.10;85.20
3866;DHT22;1948;53.250;10.412;2023-02-28T08:46:07;18.40;83.10
3866;DHT22;1948;53.250;10.412;2023-02-28T08:48:35;18.40;81.70
3866;DHT22;1948;53.250;10.412;2023-02-28T08:51:10;18.80;80.70
3866;DHT22;1948;53.250;10.412;2023-02-28T08:53:39;19.30;80.80
3866;DHT22;1948;53.250;10.412;2023-02-28T08:56:12;19.90;78.80
3866;DHT22;1948;53.250;10.412;2023-02-28T08:58:47;20.40;77.70
3866;DHT22;1948;53.250;10.412;2023-02-28T09:01:16;20.80;75.50
3866;DHT22;1948;53.250;10.412;2023-02-28T09:03:45;21.50;74.10
3866;DHT22;1948;53.250;10.412;2023-02-28T09:06:20;21.90;72.10
3866;DHT22;1948;53.250;10.412;2023-02-28T09:08:49;21.80;69.10
3866;DHT22;1948;53.250;10.412;2023-02-28T09:11:17;21.00;68.80
3866;DHT22;1948;53.250;10.412;2023-02-28T09:13:45;20.90;68.40
3866;DHT22;1948;53.250;10.412;2023-02-28T09:16:16;21.10;67.70
3866;DHT22;1948;53.250;10.412;2023-02-28T09:18:48;21.20;66.90
3866;DHT22;1948;53.250;10.412;2023-02-28T09:21:17;22.10;66.50
3866;DHT22;1948;53.250;10.412;2023-02-28T09:23:47;23.00;65.20
3866;DHT22;1948;53.250;10.412;2023-02-28T09:26:17;23.50;62.90
3866;DHT22;1948;53.250;10.412;2023-02-28T09:28:47;23.90;61.90
3866;DHT22;1948;53.250;10.412;2023-02-28T09:31:19;24.40;60.10
3866;DHT22;1948;53.250;10.412;2023-02-28T09:33:54;24.60;58.40
3866;DHT22;1948;53.250;10.412;2023-02-28T09:36:26;23.90;57.30
3866;DHT22;1948;53.250;10.412;2023-02-28T09:39:10;24.20;57.30
3866;DHT22;1948;53.250;10.412;2023-02-28T09:41:44;24.60;56.00
3866;DHT22;1948;53.250;10.412;2023-02-28T09:44:42;24.80;55.60
3866;DHT22;1948;53.250;10.412;2023-02-28T09:47:27;25.60;55.20
3866;DHT22;1948;53.250;10.412;2023-02-28T09:49:59;26.40;52.70
3866;DHT22;1948;53.250;10.412;2023-02-28T09:52:32;26.90;50.90
3866;DHT22;1948;53.250;10.412;2023-02-28T09:57:42;26.90;48.70
3866;DHT22;1948;53.250;10.412;2023-02-28T10:00:20;26.90;47.10
3866;DHT22;1948;53.250;10.412;2023-02-28T10:03:36;27.10;46.00
3866;DHT22;1948;53.250;10.412;2023-02-28T10:06:32;27.20;44.30
3866;DHT22;1948;53.250;10.412;2023-02-28T10:09:23;27.50;43.70
3866;DHT22;1948;53.250;10.412;2023-02-28T10:11:54;28.20;42.50
3866;DHT22;1948;53.250;10.412;2023-02-28T10:14:33;28.70;42.10
3866;DHT22;1948;53.250;10.412;2023-02-28T10:20:02;28.40;41.20
3866;DHT22;1948;53.250;10.412;2023-02-28T10:22:57;28.60;41.30
3866;DHT22;1948;53.250;10.412;2023-02-28T10:25:46;28.60;41.10
3866;DHT22;1948;53.250;10.412;2023-02-28T10:28:20;28.50;40.70
3866;DHT22;1948;53.250;10.412;2023-02-28T10:30:50;28.10;41.30
3866;DHT22;1948;53.250;10.412;2023-02-28T10:33:36;28.90;41.20
3866;DHT22;1948;53.250;10.412;2023-02-28T10:36:08;29.40;41.40
3866;DHT22;1948;53.250;10.412;2023-02-28T10:38:41;30.20;40.40
3866;DHT22;1948;53.250;10.412;2023-02-28T10:41:30;30.00;39.50
3866;DHT22;1948;53.250;10.412;2023-02-28T10:44:36;29.00;40.10
3866;DHT22;1948;53.250;10.412;2023-02-28T10:47:03;27.60;40.10
3866;DHT22;1948;53.250;10.412;2023-02-28T10:49:33;27.80;40.60
3866;DHT22;1948;53.250;10.412;2023-02-28T10:52:01;27.50;40.60
3866;DHT22;1948;53.250;10.412;2023-02-28T10:54:29;27.50;40.80
3866;DHT22;1948;53.250;10.412;2023-02-28T10:57:20;27.60;40.70
3866;DHT22;1948;53.250;10.412;2023-02-28T11:00:24;28.50;40.30
3866;DHT22;1948;53.250;10.412;2023-02-28T11:02:52;28.50;39.90
3866;DHT22;1948;53.250;10.412;2023-02-28T11:05:34;28.40;40.00
3866;DHT22;1948;53.250;10.412;2023-02-28T11:08:06;29.00;39.70
3866;DHT22;1948;53.250;10.412;2023-02-28T11:10:39;28.40;39.50
3866;DHT22;1948;53.250;10.412;2023-02-28T11:13:06;28.90;39.80
3866;DHT22;1948;53.250;10.412;2023-02-28T11:15:36;28.80;39.70
3866;DHT22;1948;53.250;10.412;2023-02-28T11:20:40;28.10;39.70
3866;DHT22;1948;53.250;10.412;2023-02-28T11:23:12;27.90;39.70
3866;DHT22;1948;53.250;10.412;2023-02-28T11:25:53;28.40;39.10
3866;DHT22;1948;53.250;10.412;2023-02-28T11:36:23;28.80;38.70
3866;DHT22;1948;53.250;10.412;2023-02-28T11:38:58;29.50;37.80
3866;DHT22;1948;53.250;10.412;2023-02-28T11:57:44;28.70;38.10
3866;DHT22;1948;53.250;10.412;2023-02-28T12:06:09;29.80;36.80
3866;DHT22;1948;53.250;10.412;2023-02-28T12:12:28;30.90;36.30
3866;DHT22;1948;53.250;10.412;2023-02-28T12:27:51;30.80;37.00
3866;DHT22;1948;53.250;10.412;2023-02-28T12:30:27;31.00;36.40
3866;DHT22;1948;53.250;10.412;2023-02-28T12:33:08;30.70;36.40
3866;DHT22;1948;53.250;10.412;2023-02-28T12:35:58;30.70;36.10
3866;DHT22;1948;53.250;10.412;2023-02-28T12:38:29;30.70;36.20
3866;DHT22;1948;53.250;10.412;2023-02-28T12:41:26;30.50;36.00
3866;DHT22;1948;53.250;10.412;2023-02-28T12:44:13;30.30;35.60
3866;DHT22;1948;53.250;10.412;2023-02-28T12:46:50;29.30;35.80
3866;DHT22;1948;53.250;10.412;2023-02-28T12:49:31;29.90;36.40
3866;DHT22;1948;53.250;10.412;2023-02-28T12:52:10;30.60;36.40
3866;DHT22;1948;53.250;10.412;2023-02-28T12:54:54;30.70;35.90
3866;DHT22;1948;53.250;10.412;2023-02-28T13:00:12;30.20;35.60
3866;DHT22;1948;53.250;10.412;2023-02-28T13:06:10;29.10;35.60
3866;DHT22;1948;53.250;10.412;2023-02-28T13:09:08;29.10;36.00
3866;DHT22;1948;53.250;10.412;2023-02-28T13:11:50;29.50;36.10
3866;DHT22;1948;53.250;10.412;2023-02-28T13:19:34;29.60;35.90
3866;DHT22;1948;53.250;10.412;2023-02-28T13:22:17;29.70;36.20
3866;DHT22;1948;53.250;10.412;2023-02-28T13:27:53;29.60;36.10
3866;DHT22;1948;53.250;10.412;2023-02-28T13:33:29;28.70;36.20
3866;DHT22;1948;53.250;10.412;2023-02-28T13:38:59;28.40;36.70
3866;DHT22;1948;53.250;10.412;2023-02-28T13:46:25;28.30;37.10
3866;DHT22;1948;53.250;10.412;2023-02-28T13:48:52;28.60;37.30
3866;DHT22;1948;53.250;10.412;2023-02-28T13:51:44;28.50;37.20
3866;DHT22;1948;53.250;10.412;2023-02-28T14:07:29;27.40;37.40
3866;DHT22;1948;53.250;10.412;2023-02-28T14:10:05;27.40;37.50
3866;DHT22;1948;53.250;10.412;2023-02-28T14:13:00;27.40;37.30
3866;DHT22;1948;53.250;10.412;2023-02-28T14:19:21;27.00;37.50
3866;DHT22;1948;53.250;10.412;2023-02-28T14:25:08;26.30;37.90
3866;DHT22;1948;53.250;10.412;2023-02-28T14:33:41;25.10;38.60
3866;DHT22;1948;53.250;10.412;2023-02-28T14:36:26;25.00;38.40
3866;DHT22;1948;53.250;10.412;2023-02-28T14:39:07;24.80;38.50
3866;DHT22;1948;53.250;10.412;2023-02-28T14:41:42;24.80;38.60
3866;DHT22;1948;53.250;10.412;2023-02-28T14:44:27;24.60;38.80
3866;DHT22;1948;53.250;10.412;2023-02-28T14:46:59;24.40;39.30
3866;DHT22;1948;53.250;10.412;2023-02-28T14:49:45;24.50;39.10
3866;DHT22;1948;53.250;10.412;2023-02-28T14:52:21;24.40;39.80
3866;DHT22;1948;53.250;10.412;2023-02-28T14:57:33;24.00;39.30
3866;DHT22;1948;53.250;10.412;2023-02-28T15:02:43;23.30;39.40
3866;DHT22;1948;53.250;10.412;2023-02-28T15:07:47;22.80;39.10
3866;DHT22;1948;53.250;10.412;2023-02-28T15:12:53;22.30;40.10
3866;DHT22;1948;53.250;10.412;2023-02-28T15:15:40;22.20;40.20
3866;DHT22;1948;53.250;10.412;2023-02-28T15:21:41;22.00;39.80
3866;DHT22;1948;53.250;10.412;2023-02-28T15:24:18;21.70;39.80
3866;DHT22;1948;53.250;10.412;2023-02-28T15:26:54;21.10;40.10
3866;DHT22;1948;53.250;10.412;2023-02-28T15:29:28;20.90;40.00
3866;DHT22;1948;53.250;10.412;2023-02-28T15:32:06;20.90;40.30
3866;DHT22;1948;53.250;10.412;2023-02-28T15:34:37;20.60;40.60
3866;DHT22;1948;53.250;10.412;2023-02-28T15:40:17;19.80;40.30
3866;DHT22;1948;53.250;10.412;2023-02-28T15:43:19;19.60;40.30
3866;DHT22;1948;53.250;10.412;2023-02-28T15:46:06;19.20;40.30
3866;DHT22;1948;53.250;10.412;2023-02-28T15:48:57;18.90;40.20
3866;DHT22;1948;53.250;10.412;2023-02-28T15:51:36;17.90;40.30
3866;DHT22;1948;53.250;10.412;2023-02-28T15:54:11;16.50;40.80
3866;DHT22;1948;53.250;10.412;2023-02-28T15:56:45;15.40;41.40
3866;DHT22;1948;53.250;10.412;2023-02-28T15:59:20;14.20;42.30
3866;DHT22;1948;53.250;10.412;2023-02-28T16:02:19;13.20;42.80
3866;DHT22;1948;53.250;10.412;2023-02-28T16:07:46;12.00;44.70
3866;DHT22;1948;53.250;10.412;2023-02-28T16:10:15;11.50;45.20
3866;DHT22;1948;53.250;10.412;2023-02-28T16:12:42;11.20;45.70
3866;DHT22;1948;53.250;10.412;2023-02-28T16:15:27;10.90;46.50
3866;DHT22;1948;53.250;10.412;2023-02-28T16:17:58;10.60;47.10
3866;DHT22;1948;53.250;10.412;2023-02-28T16:20:27;10.30;48.00
3866;DHT22;1948;53.250;10.412;2023-02-28T16:22:58;10.20;48.90
3866;DHT22;1948;53.250;10.412;2023-02-28T16:25:37;10.00;49.40
3866;DHT22;1948;53.250;10.412;2023-02-28T16:28:20;9.80;51.20
3866;DHT22;1948;53.250;10.412;2023-02-28T16:30:53;9.70;51.30
3866;DHT22;1948;53.250;10.412;2023-02-28T16:33:22;9.40;51.40
3866;DHT22;1948;53.250;10.412;2023-02-28T16:35:49;9.40;51.50
3866;DHT22;1948;53.250;10.412;2023-02-28T16:38:18;9.40;51.80
3866;DHT22;1948;53.250;10.412;2023-02-28T16:40:49;9.20;51.80
3866;DHT22;1948;53.250;10.412;2023-02-28T16:43:19;9.10;52.30
3866;DHT22;1948;53.250;10.412;2023-02-28T16:46:00;8.90;53.00
3866;DHT22;1948;53.250;10.412;2023-02-28T16:48:29;8.80;53.70
3866;DHT22;1948;53.250;10.412;2023-02-28T16:50:58;8.70;54.70
3866;DHT22;1948;53.250;10.412;2023-02-28T16:53:25;8.60;55.00
3866;DHT22;1948;53.250;10.412;2023-02-28T16:55:57;8.50;55.30
3866;DHT22;1948;53.250;10.412;2023-02-28T16:58:26;8.30;55.90
3866;DHT22;1948;53.250;10.412;2023-02-28T17:00:58;8.30;56.40
3866;DHT22;1948;53.250;10.412;2023-02-28T17:03:27;8.20;56.90
3866;DHT22;1948;53.250;10.412;2023-02-28T17:06:02;8.10;57.50
3866;DHT22;1948;53.250;10.412;2023-02-28T17:08:30;8.10;58.00
3866;DHT22;1948;53.250;10.412;2023-02-28T17:10:59;8.10;58.50
3866;DHT22;1948;53.250;10.412;2023-02-28T17:13:26;8.10;58.90
3866;DHT22;1948;53.250;10.412;2023-02-28T17:15:56;8.00;59.40
3866;DHT22;1948;53.250;10.412;2023-02-28T17:18:23;7.80;60.10
3866;DHT22;1948;53.250;10.412;2023-02-28T17:20:50;7.70;62.00
3866;DHT22;1948;53.250;10.412;2023-02-28T17:23:17;7.50;65.30
3866;DHT22;1948;53.250;10.412;2023-02-28T17:25:47;7.50;67.70
3866;DHT22;1948;53.250;10.412;2023-02-28T17:28:23;7.40;67.80
3866;DHT22;1948;53.250;10.412;2023-02-28T17:30:50;7.30;70.30
3866;DHT22;1948;53.250;10.412;2023-02-28T17:33:18;7.20;71.20
3866;DHT22;1948;53.250;10.412;2023-02-28T17:35:45;7.20;71.10
3866;DHT22;1948;53.250;10.412;2023-02-28T17:38:16;7.20;71.80
3866;DHT22;1948;53.250;10.412;2023-02-28T17:40:44;7.10;73.80
3866;DHT22;1948;53.250;10.412;2023-02-28T17:43:11;6.90;80.30
3866;DHT22;1948;53.250;10.412;2023-02-28T17:45:41;6.70;86.60
3866;DHT22;1948;53.250;10.412;2023-02-28T17:48:11;6.50;91.40
3866;DHT22;1948;53.250;10.412;2023-02-28T17:50:39;6.40;95.20
3866;DHT22;1948;53.250;10.412;2023-02-28T17:53:06;6.40;96.90
3866;DHT22;1948;53.250;10.412;2023-02-28T17:55:33;6.40;97.60
3866;DHT22;1948;53.250;10.412;2023-02-28T17:58:01;6.40;98.20
3866;DHT22;1948;53.250;10.412;2023-02-28T18:00:31;6.30;99.90
3866;DHT22;1948;53.250;10.412;2023-02-28T18:03:00;6.10;99.90
3866;DHT22;1948;53.250;10.412;2023-02-28T18:05:28;6.10;99.90
3866;DHT22;1948;53.250;10.412;2023-02-28T18:07:55;6.00;99.90
3866;DHT22;1948;53.250;10.412;2023-02-28T18:10:22;5.70;99.90
3866;DHT22;1948;53.250;10.412;2023-02-28T18:12:53;5.60;99.90
3866;DHT22;1948;53.250;10.412;2023-02-28T18:15:23;5.50;99.90
3866;DHT22;1948;53.250;10.412;2023-02-28T18:17:50;5.40;99.90
3866;DHT22;1948;53.250;10.412;2023-02-28T18:20:18;5.50;99.90
3866;DHT22;1948;53.250;10.412;2023-02-28T18:22:47;5.40;99.90
3866;DHT22;1948;53.250;10.412;2023-02-28T18:25:16;5.20;99.90
3866;DHT22;1948;53.250;10.412;2023-02-28T18:27:46;5.20;99.90
3866;DHT22;1948;53.250;10.412;2023-02-28T18:30:26;5.10;99.90
3866;DHT22;1948;53.250;10.412;2023-02-28T18:33:01;5.00;99.90
3866;DHT22;1948;53.250;10.412;2023-02-28T18:35:31;4.80;99.90
3866;DHT22;1948;53.250;10.412;2023-02-28T18:38:15;4.80;99.90
3866;DHT22;1948;53.250;10.412;2023-02-28T18:41:11;4.80;99.90
3866;DHT22;1948;53.250;10.412;2023-02-28T18:43:40;4.70;99.90
3866;DHT22;1948;53.250;10.412;2023-02-28T18:46:12;4.60;99.90
3866;DHT22;1948;53.250;10.412;2023-02-28T18:48:45;4.60;99.90
3866;DHT22;1948;53.250;10.412;2023-02-28T18:51:15;4.50;99.90
3866;DHT22;1948;53.250;10.412;2023-02-28T18:53:55;4.40;99.90
3866;DHT22;1948;53.250;10.412;2023-02-28T18:56:25;4.40;99.90
3866;DHT22;1948;53.250;10.412;2023-02-28T18:58:55;4.20;99.90
3866;DHT22;1948;53.250;10.412;2023-02-28T19:01:24;4.40;99.90
3866;DHT22;1948;53.250;10.412;2023-02-28T19:03:58;4.70;99.90
3866;DHT22;1948;53.250;10.412;2023-02-28T19:06:32;4.40;99.90
3866;DHT22;1948;53.250;10.412;2023-02-28T19:09:01;4.30;99.90
3866;DHT22;1948;53.250;10.412;2023-02-28T19:11:30;4.20;99.90
3866;DHT22;1948;53.250;10.412;2023-02-28T19:14:02;4.00;99.90
3866;DHT22;1948;53.250;10.412;2023-02-28T19:16:32;3.90;99.90
3866;DHT22;1948;53.250;10.412;2023-02-28T19:19:02;3.70;99.90